• Join FlightAware (Why Join?)
  • Login
  • US Flag 
06:30PM EST


 

Airport Tracker/Info


-or-


 

Live Flight TrackerFlight Track Log ✈ SWA1346 ✈ 19-Apr-2014 ✈ KPDX - KOAK

Flight Track Log - Related Links

Times and Time Zones

All times are in EDT time to prevent confusion due to time zone crossing. See the SWA1346 flight status page for this flight to view local times or setup timezone preferences in your user account.

Time Position Orientation Groundspeed Altitude Reporting Facility
EDT Latitude Longitude Course Direction KTS MPH feet Rate Location/Type
08:04PM 45.5989 -122.6328 299° West 176 203 1,100  Level Seattle Center
08:05PM 45.6033 -122.6444 299° West 170 196 1,600 1,946 Climbing Seattle Center
08:05PM 45.6131 -122.6703 298° West 175 201 2,300 2,557 Climbing Seattle Center
08:06PM 45.6344 -122.7150 304° West 209 241 4,200 3,200 Climbing Seattle Center
08:06PM 45.6456 -122.7467 297° West 235 270 5,500 3,200 Climbing Seattle Center
08:07PM 45.6303 -122.7883 242° Southwest 230 265 7,400 3,148 Climbing Seattle Center
08:07PM 45.6064 -122.7997 198° South 243 280 8,700 2,951 Climbing Seattle Center
08:08PM 45.5600 -122.8189 196° South 248 285 10,400 1,776 Climbing Seattle Center
08:09PM 45.4797 -122.8550 198° South 313 360 11,600 1,785 Climbing Seattle Center
08:10PM 45.3850 -122.8967 197° South 360 414 14,000 2,803 Climbing Seattle Center
08:11PM 45.2908 -122.9381 197° South 357 411 17,300 2,479 Climbing Seattle Center
08:12PM 45.2094 -122.9689 195° South 350 403 19,000 1,736 Climbing Seattle Center
08:13PM 45.0994 -122.9653 179° South 393 452 20,800 1,721 Climbing Seattle Center
08:14PM 44.9872 -122.9606 178° South 401 461 22,500 1,736 Climbing Seattle Center
08:15PM 44.8722 -122.9564 179° South 408 470 24,300 1,636 Climbing Seattle Center
08:16PM 44.7553 -122.9525 179° South 413 475 25,800 1,475 Climbing Seattle Center
08:17PM 44.6344 -122.9478 178° South 426 490 27,300 2,033 Climbing Seattle Center
08:18PM 44.5161 -122.9436 179° South 428 493 29,900 1,934 Climbing Seattle Center
08:19PM 44.4039 -122.9403 179° South 407 468 31,200 1,140 Climbing Seattle Center
08:20PM 44.2769 -122.9358 179° South 413 475 32,200 1,041 Climbing Seattle Center
08:21PM 44.1561 -122.9314 178° South 424 488 33,300 1,131 Climbing Seattle Center
08:22PM 44.0364 -122.9281 179° South 424 488 34,500 793 Climbing Seattle Center
08:23PM 43.9183 -122.9250 179° South 424 488 34,900 198 Climbing Seattle Center
08:24PM 43.7997 -122.9211 179° South 424 488 34,900  Level Seattle Center
08:25PM 43.6817 -122.9169 179° South 424 488 34,900  Level Seattle Center
08:26PM 43.5625 -122.9142 179° South 425 489 34,900  Level Seattle Center
08:27PM 43.4436 -122.9108 179° South 425 489 34,900  Level Seattle Center
08:28PM 43.3256 -122.9086 179° South 425 489 34,900  Level Seattle Center
08:29PM 43.2081 -122.9036 178° South 425 489 34,900  Level Seattle Center
08:30PM 43.0889 -122.9014 179° South 425 489 34,900  Level Seattle Center
08:31PM 42.9697 -122.8983 179° South 426 490 34,900  Level Seattle Center
08:32PM 42.8511 -122.8942 179° South 426 490 34,900  Level Seattle Center
08:33PM 42.7247 -122.8892 178° South 426 490 34,900  Level Seattle Center
08:34PM 42.6064 -122.8861 179° South 427 491 34,900  Level Seattle Center
08:35PM 42.4869 -122.8833 179° South 427 491 34,900  Level Seattle Center
08:36PM 42.3686 -122.8786 178° South 428 493 34,900  Level Seattle Center
08:37PM 42.2503 -122.8750 179° South 428 493 34,900  Level Seattle Center
08:38PM 42.1308 -122.8722 179° South 428 493 34,900  Level Seattle Center
08:39PM 41.9889 -122.8683 179° South 429 494 34,900  Level Seattle Center
08:40PM 41.8714 -122.8667 179° South 427 491 34,900  Level Seattle Center
08:41PM 41.7525 -122.8625 179° South 427 491 34,900  Level Seattle Center
08:42PM 41.6328 -122.8583 179° South 429 494 34,900  Level Seattle Center
08:43PM 41.5142 -122.8569 179° South 429 494 34,900  Level Seattle Center
08:44PM 41.3886 -122.8533 179° South 429 494 34,900  Level Seattle Center
08:45PM 41.2700 -122.8508 179° South 429 494 34,900  Level Seattle Center
08:46PM 41.1519 -122.8408 176° South 428 493 34,900  Level Seattle Center
08:47PM 41.0328 -122.8358 178° South 428 493 34,900  Level Oakland Center
08:48PM 40.9144 -122.8286 177° South 428 493 34,900  Level Oakland Center
08:49PM 40.7978 -122.8206 177° South 426 490 34,900  Level Seattle Center
08:50PM 40.6811 -122.8142 178° South 425 489 34,900  Level Seattle Center
08:51PM 40.5606 -122.8072 177° South 426 490 34,900  Level Oakland Center
08:52PM 40.4406 -122.7997 177° South 430 495 34,900  Level Oakland Center
08:53PM 40.3211 -122.7933 178° South 432 497 34,900  Level Oakland Center
08:54PM 40.2019 -122.7861 177° South 432 497 34,900  Level Oakland Center
08:55PM 40.0586 -122.7739 176° South 432 497 34,900  Level Oakland Center
08:56PM 39.9386 -122.7650 177° South 433 498 34,900  Level Oakland Center
08:57PM 39.8186 -122.7544 176° South 433 498 34,900  Level Oakland Center
08:58PM 39.6978 -122.7425 176° South 435 501 34,900 -439 Level Oakland Center
08:59PM 39.5750 -122.7339 177° South 443 510 34,000 -934 Descending Oakland Center
09:00PM 39.4569 -122.7236 176° South 431 496 33,000 -1,033 Descending Oakland Center
09:01PM 39.3392 -122.7139 176° South 429 494 31,900 -2,262 Descending Oakland Center
09:02PM 39.1972 -122.7022 176° South 444 511 28,400 -2,705 Descending Oakland Center
09:03PM 39.0897 -122.6947 177° South 445 512 26,400 -2,066 Descending Oakland Center
09:04PM 38.9714 -122.6847 176° South 433 498 24,200 -1,869 Descending Oakland Center
09:05PM 38.8411 -122.6747 177° South 423 487 22,600 -2,164 Descending Oakland Center
09:06PM 38.7236 -122.6653 176° South 423 487 19,800 -2,607 Descending Oakland Center
09:07PM 38.6094 -122.6561 176° South 416 479 17,300 -2,508 Descending Oakland Center
09:08PM 38.4986 -122.6464 176° South 406 467 14,700 -2,361 Descending Oakland Center
09:09PM 38.3914 -122.6244 171° South 394 453 12,500 -2,016 Descending Oakland Center
09:10PM 38.2903 -122.6058 172° South 371 427 10,600 -1,328 Descending Oakland Center
09:11PM 38.1978 -122.5889 172° South 340 391 9,800 -1,082 Descending Oakland Center
09:12PM 38.1167 -122.5736 172° South 301 346 8,400 -1,082 Descending Oakland Center
09:13PM 38.0386 -122.5522 168° South 296 341 7,600 -984 Descending Oakland Center
09:14PM 37.9814 -122.4908 140° Southeast 271 312 6,400 -1,230 Descending Oakland Center
09:16PM 37.9367 -122.4194 128° Southeast 259 298 5,100 -689 Descending Oakland Center
09:17PM 37.9006 -122.3369 119° Southeast 259 298 5,000 -49 Descending Oakland Center
09:18PM 37.8589 -122.2386 118° Southeast 260 299 5,000  Level Oakland Center
09:18PM 37.8333 -122.1667 114° Southeast 270 311 5,000  Level Northern Cal TRACON
09:19PM 37.8000 -122.0833 117° Southeast 256 295 5,000  Level Northern Cal TRACON
09:20PM 37.7833 -122.0000 104° East 246 283 5,000  Level Northern Cal TRACON
09:21PM 37.7667 -121.9167 104° East 248 285 5,000  Level Northern Cal TRACON
09:22PM 37.7167 -121.8833 152° Southeast 236 272 5,000  Level Northern Cal TRACON
09:23PM 37.6667 -121.9333 218° Southwest 202 232 5,000  Level Northern Cal TRACON
09:24PM 37.6167 -121.9167 165° South 220 253 5,000  Level Northern Cal TRACON
09:25PM 37.5833 -121.8500 122° Southeast 202 232 5,000 -150 Level Northern Cal TRACON
09:26PM 37.5500 -121.8833 218° Southwest 188 216 4,700 -450 Descending Northern Cal TRACON
09:27PM 37.5667 -121.9500 288° West 178 205 4,100 -550 Descending Northern Cal TRACON
09:28PM 37.5667 -122.0167 270° West 176 203 3,600 -550 Descending Northern Cal TRACON
09:29PM 37.6000 -122.0667 310° West 180 207 3,000 -650 Descending Northern Cal TRACON
09:30PM 37.6333 -122.1000 322° Northwest 168 193 2,300 -700 Descending Northern Cal TRACON
09:31PM 37.6500 -122.1500 293° West 145 167 1,600 -714 Descending Northern Cal TRACON
09:32PM 37.6833 -122.1833 322° Northwest 141 162 800 -727 Descending Northern Cal TRACON